Atmospheric History
04/17/2019 04:45  to  4/18/2019 04:45
Change End Date:
To complete the export process:
1) Select all of the data below
2) Copy the data to the clipboard
3) Open a word processor such as Notepad
4) Paste the data into the word processor
5) Save the file

Date/Time (MDT), AirTemp, RH, Dewpoint ,AvgWindSpeed, GustWindSpeed, WindDirection, PrecipType, PrecipIntensity, PrecipAccumulation, PrecipRate
04/18/2019 04:36, 40, 52, 24 ,10, 16, W, None, None, ,  
04/18/2019 04:35, 40, 52, 24 ,9, 16, W, None, None, ,  
04/18/2019 04:25, 41, 51, 25 ,11, 16, W, None, None, ,  
04/18/2019 04:21, 41, 51, 25 ,12, 19, W, None, None, ,  
04/18/2019 04:15, 41, 52, 25 ,13, 19, W, None, None, ,  
04/18/2019 04:06, 41, 51, 24 ,11, 16, W, None, None, ,  
04/18/2019 04:05, 41, 51, 24 ,11, 16, W, None, None, ,  
04/18/2019 03:55, 41, 51, 25 ,11, 16, W, None, None, ,  
04/18/2019 03:51, 41, 51, 25 ,12, 16, W, None, None, ,  
04/18/2019 03:45, 42, 51, 25 ,13, 16, W, None, None, ,  
04/18/2019 03:36, 41, 52, 24 ,11, 14, W, None, None, ,  
04/18/2019 03:35, 41, 52, 25 ,11, 18, W, None, None, ,  
04/18/2019 03:25, 42, 50, 25 ,14, 19, W, None, None, ,  
04/18/2019 03:21, 41, 51, 25 ,12, 15, W, None, None, ,  
04/18/2019 03:15, 41, 51, 25 ,12, 17, W, None, None, ,  
04/18/2019 03:06, 40, 54, 25 ,12, 17, W, None, None, ,  
04/18/2019 03:04, 40, 54, 25 ,12, 15, W, None, None, ,  
04/18/2019 02:54, 39, 57, 25 ,11, 12, W, None, None, ,  
04/18/2019 02:51, 38, 57, 24 ,8, 10, W, None, None, ,  
04/18/2019 02:44, 38, 57, 25 ,7, 11, W, None, None, ,  
04/18/2019 02:36, 37, 59, 24 ,6, 9, W, None, None, ,  
04/18/2019 02:34, 37, 59, 24 ,7, 9, W, None, None, ,  
04/18/2019 02:24, 37, 58, 24 ,7, 11, W, None, None, ,  
04/18/2019 02:21, 37, 58, 24 ,7, 11, W, None, None, ,  
04/18/2019 02:14, 38, 56, 24 ,9, 14, W, None, None, ,  
04/18/2019 02:06, 39, 55, 25 ,11, 16, W, None, None, ,  
04/18/2019 02:04, 39, 56, 25 ,11, 16, W, None, None, ,  
04/18/2019 01:54, 37, 58, 24 ,9, 11, W, None, None, ,  
04/18/2019 01:51, 37, 58, 24 ,9, 11, W, None, None, ,  
04/18/2019 01:44, 36, 58, 23 ,9, 12, W, None, None, ,  
04/18/2019 01:36, 38, 56, 23 ,7, 16, W, None, None, ,  
04/18/2019 01:34, 38, 54, 23 ,8, 16, W, None, None, ,  
04/18/2019 01:24, 39, 52, 24 ,11, 17, W, None, None, ,  
04/18/2019 01:21, 40, 52, 24 ,10, 19, W, None, None, ,  
04/18/2019 01:14, 41, 51, 24 ,15, 19, W, None, None, ,  
04/18/2019 01:06, 40, 52, 24 ,13, 16, W, None, None, ,  
04/18/2019 01:04, 40, 52, 24 ,12, 16, W, None, None, ,  
04/18/2019 00:54, 40, 52, 24 ,13, 16, W, None, None, ,  
04/18/2019 00:51, 40, 52, 24 ,13, 16, W, None, None, ,  
04/18/2019 00:44, 40, 52, 24 ,11, 17, W, None, None, ,  
04/18/2019 00:36, 40, 51, 24 ,13, 16, W, None, None, ,  
04/18/2019 00:34, 40, 51, 24 ,13, 14, W, None, None, ,  
04/18/2019 00:24, 40, 51, 24 ,12, 16, W, None, None, ,  
04/18/2019 00:21, 40, 51, 24 ,12, 16, W, None, None, ,  
04/18/2019 00:13, 40, 51, 24 ,12, 16, W, None, None, ,  
04/18/2019 00:06, 41, 50, 24 ,14, 19, W, None, None, ,  
04/18/2019 00:03, 41, 51, 24 ,14, 19, W, None, None, ,  
04/17/2019 23:53, 41, 51, 24 ,14, 17, W, None, None, ,  
04/17/2019 23:51, 41, 52, 24 ,14, 17, W, None, None, ,  
04/17/2019 23:43, 40, 53, 24 ,13, 16, W, None, None, ,  
04/17/2019 23:36, 38, 54, 24 ,9, 11, W, None, None, ,  
04/17/2019 23:33, 39, 53, 24 ,8, 11, W, None, None, ,  
04/17/2019 23:23, 40, 50, 24 ,9, 13, W, None, None, ,  
04/17/2019 23:21, 41, 50, 24 ,9, 14, W, None, None, ,  
04/17/2019 23:13, 42, 48, 24 ,12, 16, W, None, None, ,  
04/17/2019 23:06, 42, 49, 24 ,12, 16, W, None, None, ,  
04/17/2019 23:03, 42, 50, 24 ,12, 15, W, None, None, ,  
04/17/2019 22:53, 39, 53, 24 ,6, 7, NW, None, None, ,  
04/17/2019 22:51, 39, 54, 24 ,6, 7, W, None, None, ,  
04/17/2019 22:43, 38, 54, 23 ,7, 8, NW, None, None, ,  
04/17/2019 22:36, 38, 54, 23 ,6, 9, NW, None, None, ,  
04/17/2019 22:33, 38, 53, 23 ,7, 9, NW, None, None, ,  
04/17/2019 22:23, 39, 52, 23 ,9, 12, NW, None, None, ,  
04/17/2019 22:21, 39, 52, 23 ,9, 12, NW, None, None, ,  
04/17/2019 22:13, 38, 52, 23 ,10, 12, NW, None, None, ,  
04/17/2019 22:06, 38, 51, 22 ,11, 12, NW, None, None, ,  
04/17/2019 22:03, 38, 51, 22 ,10, 12, W, None, None, ,  
04/17/2019 21:53, 39, 48, 21 ,9, 10, W, None, None, ,  
04/17/2019 21:51, 39, 48, 21 ,9, 10, W, None, None, ,  
04/17/2019 21:43, 40, 46, 21 ,9, 12, W, None, None, ,  
04/17/2019 21:36, 40, 45, 21 ,9, 14, W, None, None, ,  
04/17/2019 21:33, 41, 45, 21 ,11, 14, W, None, None, ,  
04/17/2019 21:23, 41, 44, 21 ,10, 14, W, None, None, ,  
04/17/2019 21:21, 41, 43, 21 ,9, 14, W, None, None, ,  
04/17/2019 21:13, 42, 42, 21 ,11, 14, W, None, None, ,  
04/17/2019 21:06, 42, 42, 21 ,10, 16, W, None, None, ,  
04/17/2019 21:02, 43, 42, 21 ,12, 19, W, None, None, ,  
04/17/2019 20:52, 44, 40, 21 ,15, 25, W, None, None, ,  
04/17/2019 20:51, 44, 40, 21 ,15, 25, W, None, None, ,  
04/17/2019 20:42, 44, 39, 21 ,18, 26, W, None, None, ,  
04/17/2019 20:35, 45, 38, 21 ,20, 24, W, None, None, ,  
04/17/2019 20:32, 45, 38, 21 ,18, 24, W, None, None, ,  
04/17/2019 20:22, 46, 37, 21 ,21, 28, W, None, None, ,  
04/17/2019 20:21, 46, 37, 22 ,22, 28, W, None, None, ,  
04/17/2019 20:12, 46, 37, 22 ,21, 29, W, None, None, ,  
04/17/2019 20:06, 47, 37, 22 ,23, 31, W, None, None, ,  
04/17/2019 20:02, 47, 37, 22 ,24, 31, W, None, None, ,  
04/17/2019 19:52, 47, 37, 22 ,22, 32, W, None, None, ,  
04/17/2019 19:51, 47, 37, 23 ,24, 32, W, None, None, ,  
04/17/2019 19:42, 46, 38, 22 ,20, 27, W, None, None, ,  
04/17/2019 19:36, 46, 37, 22 ,21, 29, W, None, None, ,  
04/17/2019 19:32, 47, 36, 22 ,21, 29, W, None, None, ,  
04/17/2019 19:22, 48, 37, 23 ,19, 32, W, None, None, ,  
04/17/2019 19:21, 48, 37, 23 ,19, 32, W, None, None, ,  
04/17/2019 19:12, 49, 35, 22 ,27, 35, W, None, None, ,  
04/17/2019 19:06, 50, 35, 24 ,27, 33, W, None, None, ,  
04/17/2019 19:02, 50, 35, 24 ,26, 34, W, None, None, ,  
04/17/2019 18:52, 51, 37, 26 ,27, 36, W, None, None, ,  
04/17/2019 18:51, 51, 37, 26 ,25, 36, W, None, None, ,  
04/17/2019 18:42, 49, 39, 25 ,24, 29, W, None, None, ,  
04/17/2019 18:36, 47, 42, 26 ,20, 37, W, Yes, , ,  
04/17/2019 18:31, 47, 41, 25 ,23, 37, W, Yes, , ,  
04/17/2019 18:21, 50, 38, 25 ,24, 32, W, None, None, ,  
04/17/2019 18:21, 50, 38, 25 ,25, 32, W, None, None, ,  
04/17/2019 18:11, 51, 38, 27 ,25, 32, W, None, None, ,  
04/17/2019 18:06, 53, 39, 29 ,22, 32, NW, None, None, ,  
04/17/2019 18:01, 52, 40, 29 ,21, 32, W, None, None, ,  
04/17/2019 17:52, 49, 46, 29 ,14, 19, NW, None, None, ,  
04/17/2019 17:51, 49, 46, 29 ,15, 19, NW, None, None, ,  
04/17/2019 17:41, 47, 48, 29 ,12, 19, W, None, None, ,  
04/17/2019 17:36, 47, 47, 28 ,15, 25, W, None, None, ,  
04/17/2019 17:31, 45, 49, 27 ,16, 29, W, Yes, , ,  
04/17/2019 17:21, 46, 45, 27 ,19, 34, W, Yes, , ,  
04/17/2019 17:21, 47, 45, 26 ,21, 34, W, Yes, , ,  
04/17/2019 17:11, 48, 46, 29 ,14, 21, W, None, None, ,  
04/17/2019 17:06, 47, 48, 29 ,15, 21, W, Yes, , ,  
04/17/2019 17:01, 47, 47, 28 ,12, 24, W, Yes, , ,  
04/17/2019 16:51, 49, 40, 26 ,17, 25, NW, Yes, , ,  
04/17/2019 16:51, 49, 40, 26 ,16, 24, NW, Yes, , ,  
04/17/2019 16:41, 49, 42, 27 ,12, 22, NW, None, None, ,  
04/17/2019 16:36, 49, 42, 27 ,17, 23, NW, None, None, ,  
04/17/2019 16:31, 49, 43, 28 ,17, 29, NW, None, None, ,  
04/17/2019 16:21, 53, 44, 31 ,17, 28, W, None, None, ,  
04/17/2019 16:21, 53, 44, 31 ,18, 28, W, None, None, ,  
04/17/2019 16:11, 50, 49, 32 ,15, 23, W, None, None, ,  
04/17/2019 16:06, 49, 51, 32 ,17, 25, W, None, None, ,  
04/17/2019 16:00, 47, 56, 32 ,17, 27, W, Yes, , ,  
04/17/2019 15:51, 47, 52, 31 ,11, 15, W, None, None, ,  
04/17/2019 15:50, 47, 53, 31 ,10, 18, W, None, None, ,  
04/17/2019 15:40, 44, 60, 31 ,20, 31, NW, Yes, , ,  
04/17/2019 15:36, 44, 59, 31 ,22, 31, NW, Yes, , ,  
04/17/2019 15:30, 48, 56, 33 ,16, 26, W, Yes, , ,  
04/17/2019 15:21, 49, 53, 32 ,25, 31, SW, None, None, ,  
04/17/2019 15:20, 49, 54, 33 ,24, 29, SW, None, None, ,  
04/17/2019 15:10, 47, 49, 30 ,21, 31, W, None, None, ,  
04/17/2019 15:06, 48, 48, 30 ,14, 19, NW, None, None, ,  
04/17/2019 15:00, 49, 49, 31 ,10, 21, W, None, None, ,  
04/17/2019 14:51, 47, 50, 29 ,16, 21, NW, None, None, ,  
04/17/2019 14:50, 47, 50, 29 ,16, 21, NW, None, None, ,  
04/17/2019 14:40, 47, 52, 31 ,18, 34, W, Yes, , ,  
04/17/2019 14:36, 47, 53, 31 ,25, 34, W, Yes, , ,  
04/17/2019 14:30, 47, 58, 34 ,19, 25, W, None, None, ,  
04/17/2019 14:21, 42, 70, 33 ,17, 37, W, None, None, ,  
04/17/2019 14:20, 42, 70, 33 ,16, 37, SW, None, None, ,  
04/17/2019 14:10, 43, 58, 29 ,42, 51, W, Yes, , ,  
04/17/2019 14:06, 47, 51, 30 ,35, 51, W, Yes, , ,  
04/17/2019 14:00, 47, 58, 33 ,14, 34, NW, Yes, , ,  
04/17/2019 13:51, 46, 58, 32 ,27, 34, SW, Yes, , ,  
04/17/2019 13:50, 46, 60, 33 ,22, 34, W, Yes, , ,  
04/17/2019 13:40, 46, 57, 31 ,29, 36, SW, Yes, , ,  
04/17/2019 13:36, 46, 58, 33 ,25, 34, SW, None, None, ,  
04/17/2019 13:29, 46, 60, 33 ,22, 34, SW, None, None, ,  
04/17/2019 13:21, 45, 65, 35 ,22, 29, SW, None, None, ,  
04/17/2019 13:19, 45, 66, 35 ,22, 29, SW, None, None, ,  
04/17/2019 13:09, 46, 68, 37 ,21, 25, SW, None, None, ,  
04/17/2019 13:06, 45, 71, 36 ,18, 24, SW, None, None, ,  
04/17/2019 12:59, 46, 73, 38 ,16, 30, SW, None, None, ,  
04/17/2019 12:51, 46, 72, 38 ,23, 28, W, None, None, ,  
04/17/2019 12:49, 46, 73, 38 ,22, 28, SW, None, None, ,  
04/17/2019 12:39, 44, 74, 36 ,6, 16, W, Yes, , ,  
04/17/2019 12:36, 44, 71, 35 ,9, 16, W, Yes, , ,  
04/17/2019 12:29, 45, 75, 38 ,8, 14, SW, Yes, , ,  
04/17/2019 12:21, 44, 78, 38 ,13, 17, W, Yes, , ,  
04/17/2019 12:19, 44, 79, 38 ,12, 17, W, Yes, , ,  
04/17/2019 12:09, 44, 82, 39 ,10, 16, W, Yes, , ,  
04/17/2019 12:06, 43, 83, 38 ,12, 16, W, Yes, , ,  
04/17/2019 11:59, 43, 86, 39 ,11, 14, W, Yes, , ,  
04/17/2019 11:51, 43, 87, 39 ,9, 11, W, Yes, , ,  
04/17/2019 11:49, 42, 88, 39 ,6, 11, W, Yes, , ,  
04/17/2019 11:39, 41, 91, 39 ,8, 11, W, None, None, ,  
04/17/2019 11:36, 41, 92, 39 ,7, 11, W, Yes, , ,  
04/17/2019 11:29, 40, 93, 38 ,7, 10, W, Yes, , ,  
04/17/2019 11:21, 40, 93, 39 ,7, 9, NW, Yes, , ,  
04/17/2019 11:19, 40, 93, 38 ,7, 10, NW, Yes, , ,  
04/17/2019 11:09, 39, 93, 37 ,8, 11, NW, Yes, , ,  
04/17/2019 11:06, 39, 93, 37 ,7, 9, W, Yes, , ,  
04/17/2019 10:59, 38, 93, 36 ,7, 9, NW, Yes, , ,  
04/17/2019 10:48, 37, 93, 36 ,6, 9, W, Yes, , ,  
04/17/2019 10:38, 37, 92, 35 ,8, 12, W, Yes, , ,  
04/17/2019 10:36, 37, 92, 35 ,9, 14, W, Yes, , ,  
04/17/2019 10:28, 37, 92, 35 ,11, 16, W, Yes, , ,  
04/17/2019 10:21, 37, 90, 34 ,13, 17, W, Yes, , ,  
04/17/2019 10:18, 37, 90, 34 ,14, 19, W, Yes, , ,  
04/17/2019 10:08, 37, 84, 33 ,17, 27, W, Yes, , ,  
04/17/2019 10:06, 38, 82, 33 ,17, 27, W, Yes, , ,  
04/17/2019 09:58, 39, 70, 30 ,23, 32, SW, Yes, , ,  
04/17/2019 09:51, 42, 51, 25 ,26, 32, SW, None, None, ,  
04/17/2019 09:48, 43, 46, 24 ,22, 30, SW, None, None, ,  
04/17/2019 09:38, 45, 42, 23 ,19, 29, SW, None, None, ,  
04/17/2019 09:36, 45, 41, 23 ,22, 29, SW, None, None, ,  
04/17/2019 09:28, 46, 41, 24 ,21, 28, SW, None, None, ,  
04/17/2019 09:21, 46, 41, 24 ,22, 29, SW, None, None, ,  
04/17/2019 09:18, 46, 40, 24 ,24, 29, W, None, None, ,  
04/17/2019 09:08, 47, 41, 25 ,24, 31, W, None, None, ,  
04/17/2019 09:06, 47, 42, 26 ,23, 31, W, None, None, ,  
04/17/2019 08:58, 47, 44, 27 ,18, 27, SW, None, None, ,  
04/17/2019 08:51, 45, 45, 25 ,19, 24, SW, None, None, ,  
04/17/2019 08:48, 44, 47, 25 ,17, 21, W, None, None, ,  
04/17/2019 08:38, 43, 48, 25 ,16, 24, W, None, None, ,  
04/17/2019 08:36, 43, 48, 25 ,17, 24, W, None, None, ,  
04/17/2019 08:28, 42, 49, 25 ,17, 22, W, None, None, ,  
04/17/2019 08:21, 42, 49, 25 ,17, 21, W, None, None, ,  
04/17/2019 08:18, 42, 49, 25 ,13, 20, SW, None, None, ,  
04/17/2019 08:08, 42, 49, 24 ,15, 22, SW, None, None, ,  
04/17/2019 08:06, 42, 49, 24 ,16, 22, SW, None, None, ,  
04/17/2019 07:57, 41, 50, 24 ,16, 21, W, None, None, ,  
04/17/2019 07:51, 41, 49, 24 ,16, 24, SW, None, None, ,  
04/17/2019 07:47, 41, 49, 24 ,18, 24, SW, None, None, ,  
04/17/2019 07:37, 41, 48, 23 ,19, 26, SW, None, None, ,  
04/17/2019 07:36, 41, 48, 23 ,17, 22, SW, None, None, ,  
04/17/2019 07:27, 41, 48, 23 ,15, 21, SW, None, None, ,  
04/17/2019 07:21, 41, 49, 23 ,17, 19, SW, None, None, ,  
04/17/2019 07:17, 41, 49, 23 ,14, 18, SW, None, None, ,  
04/17/2019 07:07, 40, 49, 23 ,15, 19, SW, None, None, ,  
04/17/2019 07:06, 40, 49, 23 ,15, 19, SW, None, None, ,  
04/17/2019 06:57, 40, 50, 23 ,15, 19, SW, None, None, ,  
04/17/2019 06:51, 40, 50, 23 ,14, 19, SW, None, None, ,  
04/17/2019 06:47, 39, 51, 23 ,15, 17, SW, None, None, ,  
04/17/2019 06:37, 39, 51, 23 ,15, 20, SW, None, None, ,  
04/17/2019 06:36, 39, 51, 23 ,15, 20, W, None, None, ,  
04/17/2019 06:27, 39, 52, 23 ,15, 19, W, None, None, ,  
04/17/2019 06:21, 39, 52, 23 ,15, 19, W, None, None, ,  
04/17/2019 06:17, 39, 51, 23 ,14, 21, W, None, None, ,  
04/17/2019 06:07, 39, 52, 22 ,16, 20, SW, None, None, ,  
04/17/2019 06:05, 38, 52, 22 ,15, 20, W, None, None, ,  
04/17/2019 05:57, 39, 51, 22 ,16, 21, W, None, None, ,  
04/17/2019 05:51, 39, 52, 23 ,17, 21, SW, None, None, ,  
04/17/2019 05:47, 39, 52, 22 ,16, 21, SW, None, None, ,  
04/17/2019 05:37, 38, 52, 23 ,15, 20, SW, None, None, ,  
04/17/2019 05:36, 38, 52, 23 ,14, 20, SW, None, None, ,  
04/17/2019 05:27, 39, 52, 23 ,17, 21, SW, None, None, ,  
04/17/2019 05:21, 38, 52, 23 ,16, 19, W, None, None, ,  
04/17/2019 05:17, 38, 52, 22 ,15, 20, SW, None, None, ,  
04/17/2019 05:06, 38, 52, 22 ,15, 21, SW, None, None, ,  
04/17/2019 05:06, 38, 52, 22 ,15, 21, SW, None, None, ,  
04/17/2019 04:56, 39, 52, 22 ,16, 21, SW, None, None, ,  
04/17/2019 04:51, 39, 52, 23 ,17, 21, SW, None, None, ,  
04/17/2019 04:46, 39, 52, 23 ,17, 21, SW, None, None, ,  
Change End Date:

Copyright © 1998-2015 Vaisala, Inc.
All Rights Reserved
Send comments about the data to:
SCAN Web ® is a registered trademark of Vaisala, Inc.
SCAN Web Version 6.0